sensor_id;sensor_type;location;lat;lon;timestamp;P1;durP1;ratioP1;P2;durP2;ratioP2
2039;SDS011;1025;42.686;23.350;2023-03-23T00:01:34;45.70;;;35.30;;
2039;SDS011;1025;42.686;23.350;2023-03-23T00:04:02;45.27;;;36.33;;
2039;SDS011;1025;42.686;23.350;2023-03-23T00:06:29;49.10;;;37.77;;
2039;SDS011;1025;42.686;23.350;2023-03-23T00:08:58;46.37;;;35.67;;
2039;SDS011;1025;42.686;23.350;2023-03-23T00:11:29;42.63;;;36.27;;
2039;SDS011;1025;42.686;23.350;2023-03-23T00:13:56;47.57;;;37.20;;
2039;SDS011;1025;42.686;23.350;2023-03-23T00:16:26;47.20;;;39.40;;
2039;SDS011;1025;42.686;23.350;2023-03-23T00:18:56;47.87;;;38.20;;
2039;SDS011;1025;42.686;23.350;2023-03-23T00:21:24;49.07;;;38.03;;
2039;SDS011;1025;42.686;23.350;2023-03-23T00:23:59;42.13;;;36.60;;
2039;SDS011;1025;42.686;23.350;2023-03-23T00:26:25;40.33;;;34.97;;
2039;SDS011;1025;42.686;23.350;2023-03-23T00:28:55;44.80;;;37.07;;
2039;SDS011;1025;42.686;23.350;2023-03-23T00:31:21;42.03;;;34.60;;
2039;SDS011;1025;42.686;23.350;2023-03-23T00:33:48;43.60;;;36.70;;
2039;SDS011;1025;42.686;23.350;2023-03-23T00:36:15;46.83;;;39.47;;
2039;SDS011;1025;42.686;23.350;2023-03-23T00:38:42;54.43;;;41.30;;
2039;SDS011;1025;42.686;23.350;2023-03-23T00:41:09;54.80;;;43.33;;
2039;SDS011;1025;42.686;23.350;2023-03-23T00:43:36;54.60;;;42.97;;
2039;SDS011;1025;42.686;23.350;2023-03-23T00:46:05;66.90;;;52.90;;
2039;SDS011;1025;42.686;23.350;2023-03-23T00:48:34;66.03;;;53.00;;
2039;SDS011;1025;42.686;23.350;2023-03-23T00:51:01;73.17;;;51.53;;
2039;SDS011;1025;42.686;23.350;2023-03-23T00:53:31;87.93;;;48.13;;
2039;SDS011;1025;42.686;23.350;2023-03-23T00:55:57;207.90;;;56.00;;
2039;SDS011;1025;42.686;23.350;2023-03-23T00:58:24;85.80;;;46.37;;
2039;SDS011;1025;42.686;23.350;2023-03-23T01:00:51;87.70;;;45.83;;
2039;SDS011;1025;42.686;23.350;2023-03-23T01:03:18;86.73;;;50.07;;
2039;SDS011;1025;42.686;23.350;2023-03-23T01:05:45;155.30;;;57.00;;
2039;SDS011;1025;42.686;23.350;2023-03-23T01:08:12;151.10;;;54.17;;
2039;SDS011;1025;42.686;23.350;2023-03-23T01:10:39;245.30;;;54.60;;
2039;SDS011;1025;42.686;23.350;2023-03-23T01:13:06;175.93;;;51.60;;
2039;SDS011;1025;42.686;23.350;2023-03-23T01:15:32;82.03;;;42.73;;
2039;SDS011;1025;42.686;23.350;2023-03-23T01:18:00;129.37;;;47.70;;
2039;SDS011;1025;42.686;23.350;2023-03-23T01:20:28;121.73;;;46.87;;
2039;SDS011;1025;42.686;23.350;2023-03-23T01:22:56;150.63;;;45.83;;
2039;SDS011;1025;42.686;23.350;2023-03-23T01:25:25;175.10;;;47.77;;
2039;SDS011;1025;42.686;23.350;2023-03-23T01:27:52;126.37;;;45.77;;
2039;SDS011;1025;42.686;23.350;2023-03-23T01:30:19;171.83;;;49.37;;
2039;SDS011;1025;42.686;23.350;2023-03-23T01:32:45;150.13;;;49.57;;
2039;SDS011;1025;42.686;23.350;2023-03-23T01:35:12;64.33;;;43.87;;
2039;SDS011;1025;42.686;23.350;2023-03-23T01:37:39;65.27;;;42.07;;
2039;SDS011;1025;42.686;23.350;2023-03-23T01:40:06;55.33;;;40.17;;
2039;SDS011;1025;42.686;23.350;2023-03-23T01:42:34;57.93;;;39.07;;
2039;SDS011;1025;42.686;23.350;2023-03-23T01:47:54;56.93;;;40.60;;
2039;SDS011;1025;42.686;23.350;2023-03-23T01:50:21;55.53;;;40.57;;
2039;SDS011;1025;42.686;23.350;2023-03-23T01:52:50;51.97;;;39.30;;
2039;SDS011;1025;42.686;23.350;2023-03-23T01:55:18;53.97;;;39.80;;
2039;SDS011;1025;42.686;23.350;2023-03-23T01:57:45;55.70;;;38.77;;
2039;SDS011;1025;42.686;23.350;2023-03-23T02:00:12;51.60;;;38.10;;
2039;SDS011;1025;42.686;23.350;2023-03-23T02:02:40;54.03;;;40.40;;
2039;SDS011;1025;42.686;23.350;2023-03-23T02:05:08;52.47;;;40.77;;
2039;SDS011;1025;42.686;23.350;2023-03-23T02:07:36;60.43;;;40.97;;
2039;SDS011;1025;42.686;23.350;2023-03-23T02:10:05;45.40;;;37.70;;
2039;SDS011;1025;42.686;23.350;2023-03-23T02:12:32;53.73;;;40.40;;
2039;SDS011;1025;42.686;23.350;2023-03-23T02:14:59;54.80;;;39.03;;
2039;SDS011;1025;42.686;23.350;2023-03-23T02:17:27;59.20;;;38.93;;
2039;SDS011;1025;42.686;23.350;2023-03-23T02:20:00;52.67;;;38.90;;
2039;SDS011;1025;42.686;23.350;2023-03-23T02:22:39;54.00;;;41.50;;
2039;SDS011;1025;42.686;23.350;2023-03-23T02:28:00;57.73;;;40.07;;
2039;SDS011;1025;42.686;23.350;2023-03-23T02:30:43;55.10;;;38.23;;
2039;SDS011;1025;42.686;23.350;2023-03-23T02:35:56;50.93;;;36.17;;
2039;SDS011;1025;42.686;23.350;2023-03-23T02:38:25;54.03;;;38.23;;
2039;SDS011;1025;42.686;23.350;2023-03-23T02:40:53;55.37;;;40.80;;
2039;SDS011;1025;42.686;23.350;2023-03-23T02:43:21;60.43;;;40.00;;
2039;SDS011;1025;42.686;23.350;2023-03-23T02:45:51;50.23;;;37.67;;
2039;SDS011;1025;42.686;23.350;2023-03-23T02:48:19;50.60;;;38.20;;
2039;SDS011;1025;42.686;23.350;2023-03-23T02:50:47;52.40;;;37.50;;
2039;SDS011;1025;42.686;23.350;2023-03-23T02:53:17;41.00;;;33.00;;
2039;SDS011;1025;42.686;23.350;2023-03-23T02:55:45;36.93;;;29.10;;
2039;SDS011;1025;42.686;23.350;2023-03-23T02:58:13;40.10;;;29.87;;
2039;SDS011;1025;42.686;23.350;2023-03-23T03:00:40;42.23;;;29.70;;
2039;SDS011;1025;42.686;23.350;2023-03-23T03:03:08;35.90;;;28.43;;
2039;SDS011;1025;42.686;23.350;2023-03-23T03:05:38;38.53;;;28.93;;
2039;SDS011;1025;42.686;23.350;2023-03-23T03:08:09;34.40;;;29.77;;
2039;SDS011;1025;42.686;23.350;2023-03-23T03:10:42;33.00;;;26.27;;
2039;SDS011;1025;42.686;23.350;2023-03-23T03:13:11;33.13;;;25.00;;
2039;SDS011;1025;42.686;23.350;2023-03-23T03:15:41;29.10;;;23.67;;
2039;SDS011;1025;42.686;23.350;2023-03-23T03:18:10;24.17;;;19.60;;
2039;SDS011;1025;42.686;23.350;2023-03-23T03:20:40;20.87;;;17.90;;
2039;SDS011;1025;42.686;23.350;2023-03-23T03:23:08;26.80;;;20.70;;
2039;SDS011;1025;42.686;23.350;2023-03-23T03:25:37;25.37;;;21.67;;
2039;SDS011;1025;42.686;23.350;2023-03-23T03:28:07;26.97;;;21.27;;
2039;SDS011;1025;42.686;23.350;2023-03-23T03:30:33;23.43;;;20.17;;
2039;SDS011;1025;42.686;23.350;2023-03-23T03:33:01;30.70;;;23.50;;
2039;SDS011;1025;42.686;23.350;2023-03-23T03:35:29;27.10;;;23.87;;
2039;SDS011;1025;42.686;23.350;2023-03-23T03:37:56;27.43;;;20.80;;
2039;SDS011;1025;42.686;23.350;2023-03-23T03:40:25;30.40;;;21.87;;
2039;SDS011;1025;42.686;23.350;2023-03-23T03:42:52;37.57;;;30.03;;
2039;SDS011;1025;42.686;23.350;2023-03-23T03:45:20;38.70;;;28.50;;
2039;SDS011;1025;42.686;23.350;2023-03-23T03:47:46;33.40;;;24.53;;
2039;SDS011;1025;42.686;23.350;2023-03-23T03:50:13;34.00;;;23.93;;
2039;SDS011;1025;42.686;23.350;2023-03-23T03:52:39;29.90;;;23.97;;
2039;SDS011;1025;42.686;23.350;2023-03-23T03:55:07;25.73;;;21.77;;
2039;SDS011;1025;42.686;23.350;2023-03-23T03:57:34;22.23;;;19.57;;
2039;SDS011;1025;42.686;23.350;2023-03-23T04:00:00;25.27;;;18.80;;
2039;SDS011;1025;42.686;23.350;2023-03-23T04:02:30;32.13;;;22.53;;
2039;SDS011;1025;42.686;23.350;2023-03-23T04:04:57;27.13;;;19.70;;
2039;SDS011;1025;42.686;23.350;2023-03-23T04:07:23;23.03;;;18.70;;
2039;SDS011;1025;42.686;23.350;2023-03-23T04:09:51;30.90;;;20.83;;
2039;SDS011;1025;42.686;23.350;2023-03-23T04:12:18;23.80;;;20.70;;
2039;SDS011;1025;42.686;23.350;2023-03-23T04:14:45;28.60;;;21.93;;
2039;SDS011;1025;42.686;23.350;2023-03-23T04:17:12;29.80;;;23.00;;
2039;SDS011;1025;42.686;23.350;2023-03-23T04:19:41;30.17;;;23.67;;
2039;SDS011;1025;42.686;23.350;2023-03-23T04:22:07;29.83;;;21.30;;
2039;SDS011;1025;42.686;23.350;2023-03-23T04:24:34;28.60;;;19.43;;
2039;SDS011;1025;42.686;23.350;2023-03-23T04:27:02;20.87;;;17.30;;
2039;SDS011;1025;42.686;23.350;2023-03-23T04:29:28;19.53;;;16.80;;
2039;SDS011;1025;42.686;23.350;2023-03-23T04:31:56;23.03;;;20.53;;
2039;SDS011;1025;42.686;23.350;2023-03-23T04:34:22;30.10;;;19.67;;
2039;SDS011;1025;42.686;23.350;2023-03-23T04:36:50;27.53;;;23.10;;
2039;SDS011;1025;42.686;23.350;2023-03-23T04:39:18;26.80;;;20.23;;
2039;SDS011;1025;42.686;23.350;2023-03-23T04:41:49;30.80;;;22.90;;
2039;SDS011;1025;42.686;23.350;2023-03-23T04:44:17;24.00;;;20.10;;
2039;SDS011;1025;42.686;23.350;2023-03-23T04:46:46;25.17;;;19.43;;
2039;SDS011;1025;42.686;23.350;2023-03-23T04:49:15;17.00;;;15.30;;
2039;SDS011;1025;42.686;23.350;2023-03-23T04:51:46;22.37;;;17.40;;
2039;SDS011;1025;42.686;23.350;2023-03-23T04:54:14;17.83;;;15.33;;
2039;SDS011;1025;42.686;23.350;2023-03-23T04:56:40;32.10;;;18.23;;
2039;SDS011;1025;42.686;23.350;2023-03-23T04:59:07;22.90;;;18.13;;
2039;SDS011;1025;42.686;23.350;2023-03-23T05:01:33;20.03;;;17.90;;
2039;SDS011;1025;42.686;23.350;2023-03-23T05:04:01;21.13;;;18.90;;
2039;SDS011;1025;42.686;23.350;2023-03-23T05:06:28;22.93;;;19.47;;
2039;SDS011;1025;42.686;23.350;2023-03-23T05:08:54;23.90;;;21.40;;
2039;SDS011;1025;42.686;23.350;2023-03-23T05:11:23;25.37;;;19.50;;
2039;SDS011;1025;42.686;23.350;2023-03-23T05:13:50;23.43;;;21.00;;
2039;SDS011;1025;42.686;23.350;2023-03-23T05:16:16;32.63;;;21.57;;
2039;SDS011;1025;42.686;23.350;2023-03-23T05:18:43;27.07;;;21.30;;
2039;SDS011;1025;42.686;23.350;2023-03-23T05:21:11;22.97;;;20.57;;
2039;SDS011;1025;42.686;23.350;2023-03-23T05:23:38;19.77;;;17.67;;
2039;SDS011;1025;42.686;23.350;2023-03-23T05:26:05;28.57;;;21.23;;
2039;SDS011;1025;42.686;23.350;2023-03-23T05:28:33;27.57;;;21.83;;
2039;SDS011;1025;42.686;23.350;2023-03-23T05:31:01;23.53;;;19.87;;
2039;SDS011;1025;42.686;23.350;2023-03-23T05:33:28;26.90;;;21.63;;
2039;SDS011;1025;42.686;23.350;2023-03-23T05:35:54;25.73;;;21.10;;
2039;SDS011;1025;42.686;23.350;2023-03-23T05:38:21;23.03;;;20.60;;
2039;SDS011;1025;42.686;23.350;2023-03-23T05:40:47;29.03;;;21.60;;
2039;SDS011;1025;42.686;23.350;2023-03-23T05:43:14;38.27;;;26.93;;
2039;SDS011;1025;42.686;23.350;2023-03-23T05:45:42;25.40;;;21.50;;
2039;SDS011;1025;42.686;23.350;2023-03-23T05:48:08;24.27;;;19.47;;
2039;SDS011;1025;42.686;23.350;2023-03-23T05:50:35;29.23;;;22.03;;
2039;SDS011;1025;42.686;23.350;2023-03-23T05:53:01;28.50;;;20.70;;
2039;SDS011;1025;42.686;23.350;2023-03-23T05:55:29;27.63;;;20.77;;
2039;SDS011;1025;42.686;23.350;2023-03-23T05:57:55;27.03;;;20.63;;
2039;SDS011;1025;42.686;23.350;2023-03-23T06:00:22;25.80;;;20.60;;
2039;SDS011;1025;42.686;23.350;2023-03-23T06:02:53;25.37;;;21.03;;
2039;SDS011;1025;42.686;23.350;2023-03-23T06:05:21;28.53;;;21.50;;
2039;SDS011;1025;42.686;23.350;2023-03-23T06:07:48;30.40;;;22.47;;
2039;SDS011;1025;42.686;23.350;2023-03-23T06:10:15;21.20;;;18.47;;
2039;SDS011;1025;42.686;23.350;2023-03-23T06:12:41;27.97;;;19.60;;
2039;SDS011;1025;42.686;23.350;2023-03-23T06:15:09;32.00;;;22.47;;
2039;SDS011;1025;42.686;23.350;2023-03-23T06:17:36;30.47;;;23.73;;
2039;SDS011;1025;42.686;23.350;2023-03-23T06:20:05;31.80;;;24.63;;
2039;SDS011;1025;42.686;23.350;2023-03-23T06:22:35;31.80;;;23.10;;
2039;SDS011;1025;42.686;23.350;2023-03-23T06:25:01;41.50;;;25.77;;
2039;SDS011;1025;42.686;23.350;2023-03-23T06:27:28;29.60;;;24.77;;
2039;SDS011;1025;42.686;23.350;2023-03-23T06:29:55;35.60;;;27.37;;
2039;SDS011;1025;42.686;23.350;2023-03-23T06:32:22;27.90;;;24.27;;
2039;SDS011;1025;42.686;23.350;2023-03-23T06:34:50;32.57;;;25.47;;
2039;SDS011;1025;42.686;23.350;2023-03-23T06:37:17;38.93;;;29.07;;
2039;SDS011;1025;42.686;23.350;2023-03-23T06:39:44;35.20;;;23.40;;
2039;SDS011;1025;42.686;23.350;2023-03-23T06:42:11;45.50;;;25.80;;
2039;SDS011;1025;42.686;23.350;2023-03-23T06:44:38;30.10;;;25.70;;
2039;SDS011;1025;42.686;23.350;2023-03-23T06:47:05;32.17;;;24.10;;
2039;SDS011;1025;42.686;23.350;2023-03-23T06:49:32;32.00;;;24.43;;
2039;SDS011;1025;42.686;23.350;2023-03-23T06:51:59;26.60;;;23.27;;
2039;SDS011;1025;42.686;23.350;2023-03-23T06:54:28;32.03;;;22.50;;
2039;SDS011;1025;42.686;23.350;2023-03-23T06:56:55;31.87;;;22.30;;
2039;SDS011;1025;42.686;23.350;2023-03-23T06:59:21;31.97;;;27.30;;
2039;SDS011;1025;42.686;23.350;2023-03-23T07:01:48;55.20;;;35.73;;
2039;SDS011;1025;42.686;23.350;2023-03-23T07:04:15;38.53;;;24.53;;
2039;SDS011;1025;42.686;23.350;2023-03-23T07:06:42;29.67;;;22.80;;
2039;SDS011;1025;42.686;23.350;2023-03-23T07:09:08;37.73;;;23.37;;
2039;SDS011;1025;42.686;23.350;2023-03-23T07:11:36;43.87;;;24.23;;
2039;SDS011;1025;42.686;23.350;2023-03-23T07:14:03;32.20;;;21.27;;
2039;SDS011;1025;42.686;23.350;2023-03-23T07:16:29;39.47;;;23.60;;
2039;SDS011;1025;42.686;23.350;2023-03-23T07:18:56;40.20;;;24.30;;
2039;SDS011;1025;42.686;23.350;2023-03-23T07:21:22;34.47;;;19.23;;
2039;SDS011;1025;42.686;23.350;2023-03-23T07:23:49;30.53;;;21.83;;
2039;SDS011;1025;42.686;23.350;2023-03-23T07:26:16;46.00;;;24.73;;
2039;SDS011;1025;42.686;23.350;2023-03-23T07:28:44;26.43;;;20.57;;
2039;SDS011;1025;42.686;23.350;2023-03-23T07:31:11;31.40;;;22.77;;
2039;SDS011;1025;42.686;23.350;2023-03-23T07:33:38;37.23;;;21.90;;
2039;SDS011;1025;42.686;23.350;2023-03-23T07:36:05;24.37;;;21.47;;
2039;SDS011;1025;42.686;23.350;2023-03-23T07:38:33;37.10;;;22.40;;
2039;SDS011;1025;42.686;23.350;2023-03-23T07:41:00;26.80;;;19.10;;
2039;SDS011;1025;42.686;23.350;2023-03-23T07:43:27;29.10;;;24.40;;
2039;SDS011;1025;42.686;23.350;2023-03-23T07:45:55;39.27;;;23.70;;
2039;SDS011;1025;42.686;23.350;2023-03-23T07:48:21;27.43;;;22.43;;
2039;SDS011;1025;42.686;23.350;2023-03-23T07:50:48;41.73;;;24.43;;
2039;SDS011;1025;42.686;23.350;2023-03-23T07:53:14;45.37;;;24.03;;
2039;SDS011;1025;42.686;23.350;2023-03-23T07:55:41;28.77;;;22.60;;
2039;SDS011;1025;42.686;23.350;2023-03-23T07:58:08;31.90;;;22.77;;
2039;SDS011;1025;42.686;23.350;2023-03-23T08:00:34;30.60;;;22.00;;
2039;SDS011;1025;42.686;23.350;2023-03-23T08:03:04;34.10;;;22.23;;
2039;SDS011;1025;42.686;23.350;2023-03-23T08:05:31;23.97;;;21.10;;
2039;SDS011;1025;42.686;23.350;2023-03-23T08:07:57;49.77;;;25.10;;
2039;SDS011;1025;42.686;23.350;2023-03-23T08:10:25;40.50;;;24.40;;
2039;SDS011;1025;42.686;23.350;2023-03-23T08:12:52;40.73;;;24.50;;
2039;SDS011;1025;42.686;23.350;2023-03-23T08:15:19;52.90;;;25.00;;
2039;SDS011;1025;42.686;23.350;2023-03-23T08:17:46;41.70;;;25.63;;
2039;SDS011;1025;42.686;23.350;2023-03-23T08:20:14;25.57;;;20.53;;
2039;SDS011;1025;42.686;23.350;2023-03-23T08:22:42;37.17;;;24.10;;
2039;SDS011;1025;42.686;23.350;2023-03-23T08:25:10;21.70;;;19.43;;
2039;SDS011;1025;42.686;23.350;2023-03-23T08:27:37;29.53;;;20.50;;
2039;SDS011;1025;42.686;23.350;2023-03-23T08:30:08;21.53;;;16.47;;
2039;SDS011;1025;42.686;23.350;2023-03-23T08:32:35;30.03;;;18.90;;
2039;SDS011;1025;42.686;23.350;2023-03-23T08:35:02;24.07;;;18.63;;
2039;SDS011;1025;42.686;23.350;2023-03-23T08:37:30;33.90;;;20.73;;
2039;SDS011;1025;42.686;23.350;2023-03-23T08:39:57;31.23;;;21.37;;
2039;SDS011;1025;42.686;23.350;2023-03-23T08:42:23;19.57;;;15.20;;
2039;SDS011;1025;42.686;23.350;2023-03-23T08:44:50;22.00;;;17.37;;
2039;SDS011;1025;42.686;23.350;2023-03-23T08:47:17;23.80;;;17.60;;
2039;SDS011;1025;42.686;23.350;2023-03-23T08:49:43;12.97;;;11.77;;
2039;SDS011;1025;42.686;23.350;2023-03-23T08:52:10;12.83;;;11.30;;
2039;SDS011;1025;42.686;23.350;2023-03-23T08:54:38;13.93;;;12.63;;
2039;SDS011;1025;42.686;23.350;2023-03-23T08:57:06;14.37;;;11.70;;
2039;SDS011;1025;42.686;23.350;2023-03-23T08:59:32;18.60;;;12.40;;
2039;SDS011;1025;42.686;23.350;2023-03-23T09:01:59;10.10;;;9.10;;
2039;SDS011;1025;42.686;23.350;2023-03-23T09:04:25;10.73;;;9.63;;
2039;SDS011;1025;42.686;23.350;2023-03-23T09:06:54;8.70;;;7.90;;
2039;SDS011;1025;42.686;23.350;2023-03-23T09:09:35;7.70;;;6.60;;
2039;SDS011;1025;42.686;23.350;2023-03-23T09:12:05;8.23;;;7.53;;
2039;SDS011;1025;42.686;23.350;2023-03-23T09:14:32;10.10;;;8.33;;
2039;SDS011;1025;42.686;23.350;2023-03-23T09:16:59;15.90;;;9.37;;
2039;SDS011;1025;42.686;23.350;2023-03-23T09:19:25;14.43;;;9.90;;
2039;SDS011;1025;42.686;23.350;2023-03-23T09:21:52;8.20;;;7.40;;
2039;SDS011;1025;42.686;23.350;2023-03-23T09:24:18;12.93;;;8.80;;
2039;SDS011;1025;42.686;23.350;2023-03-23T09:26:45;12.43;;;7.83;;
2039;SDS011;1025;42.686;23.350;2023-03-23T09:29:14;10.27;;;9.07;;
2039;SDS011;1025;42.686;23.350;2023-03-23T09:31:41;10.27;;;9.20;;
2039;SDS011;1025;42.686;23.350;2023-03-23T09:34:08;11.37;;;9.80;;
2039;SDS011;1025;42.686;23.350;2023-03-23T09:36:36;9.80;;;8.83;;
2039;SDS011;1025;42.686;23.350;2023-03-23T09:39:04;9.03;;;8.27;;
2039;SDS011;1025;42.686;23.350;2023-03-23T09:41:39;9.90;;;9.00;;
2039;SDS011;1025;42.686;23.350;2023-03-23T09:44:10;8.80;;;6.60;;
2039;SDS011;1025;42.686;23.350;2023-03-23T09:46:50;11.60;;;7.70;;
2039;SDS011;1025;42.686;23.350;2023-03-23T09:49:33;9.07;;;7.60;;
2039;SDS011;1025;42.686;23.350;2023-03-23T09:52:01;7.17;;;6.57;;
2039;SDS011;1025;42.686;23.350;2023-03-23T09:54:29;7.20;;;6.03;;
2039;SDS011;1025;42.686;23.350;2023-03-23T09:56:57;6.10;;;5.60;;
2039;SDS011;1025;42.686;23.350;2023-03-23T09:59:34;14.40;;;8.33;;
2039;SDS011;1025;42.686;23.350;2023-03-23T10:02:09;7.27;;;6.63;;
2039;SDS011;1025;42.686;23.350;2023-03-23T10:04:39;8.20;;;7.00;;
2039;SDS011;1025;42.686;23.350;2023-03-23T10:07:09;7.43;;;6.73;;
2039;SDS011;1025;42.686;23.350;2023-03-23T10:09:36;8.27;;;5.80;;
2039;SDS011;1025;42.686;23.350;2023-03-23T10:12:04;10.30;;;7.60;;
2039;SDS011;1025;42.686;23.350;2023-03-23T10:14:37;7.30;;;6.70;;
2039;SDS011;1025;42.686;23.350;2023-03-23T10:17:12;8.57;;;7.70;;
2039;SDS011;1025;42.686;23.350;2023-03-23T10:19:40;8.60;;;7.47;;
2039;SDS011;1025;42.686;23.350;2023-03-23T10:22:09;9.93;;;8.93;;
2039;SDS011;1025;42.686;23.350;2023-03-23T10:24:36;7.30;;;6.70;;
2039;SDS011;1025;42.686;23.350;2023-03-23T10:27:06;10.80;;;8.50;;
2039;SDS011;1025;42.686;23.350;2023-03-23T10:29:36;10.70;;;7.70;;
2039;SDS011;1025;42.686;23.350;2023-03-23T10:32:08;7.97;;;7.37;;
2039;SDS011;1025;42.686;23.350;2023-03-23T10:34:39;8.77;;;7.37;;
2039;SDS011;1025;42.686;23.350;2023-03-23T10:37:09;7.13;;;6.53;;
2039;SDS011;1025;42.686;23.350;2023-03-23T10:39:40;7.90;;;7.10;;
2039;SDS011;1025;42.686;23.350;2023-03-23T10:42:08;12.20;;;8.83;;
2039;SDS011;1025;42.686;23.350;2023-03-23T10:44:35;13.23;;;9.90;;
2039;SDS011;1025;42.686;23.350;2023-03-23T10:47:02;10.20;;;8.27;;
2039;SDS011;1025;42.686;23.350;2023-03-23T10:49:31;9.73;;;7.73;;
2039;SDS011;1025;42.686;23.350;2023-03-23T10:54:49;7.20;;;6.60;;
2039;SDS011;1025;42.686;23.350;2023-03-23T10:57:20;6.93;;;6.40;;
2039;SDS011;1025;42.686;23.350;2023-03-23T10:59:47;7.00;;;6.50;;
2039;SDS011;1025;42.686;23.350;2023-03-23T11:02:14;10.27;;;7.60;;
2039;SDS011;1025;42.686;23.350;2023-03-23T11:04:44;12.60;;;9.17;;
2039;SDS011;1025;42.686;23.350;2023-03-23T11:07:15;10.67;;;7.67;;
2039;SDS011;1025;42.686;23.350;2023-03-23T11:09:52;10.13;;;7.10;;
2039;SDS011;1025;42.686;23.350;2023-03-23T11:12:20;10.17;;;8.40;;
2039;SDS011;1025;42.686;23.350;2023-03-23T11:14:48;8.50;;;7.27;;
2039;SDS011;1025;42.686;23.350;2023-03-23T11:17:19;7.10;;;6.57;;
2039;SDS011;1025;42.686;23.350;2023-03-23T11:19:46;9.77;;;8.20;;
2039;SDS011;1025;42.686;23.350;2023-03-23T11:22:15;11.17;;;7.43;;
2039;SDS011;1025;42.686;23.350;2023-03-23T11:24:44;7.70;;;7.00;;
2039;SDS011;1025;42.686;23.350;2023-03-23T11:27:12;6.83;;;6.33;;
2039;SDS011;1025;42.686;23.350;2023-03-23T11:29:47;5.80;;;5.50;;
2039;SDS011;1025;42.686;23.350;2023-03-23T11:32:15;9.80;;;8.13;;
2039;SDS011;1025;42.686;23.350;2023-03-23T11:34:42;6.13;;;5.73;;
2039;SDS011;1025;42.686;23.350;2023-03-23T11:37:12;10.03;;;7.13;;
2039;SDS011;1025;42.686;23.350;2023-03-23T11:39:53;14.30;;;13.00;;
2039;SDS011;1025;42.686;23.350;2023-03-23T11:42:22;7.13;;;6.63;;
2039;SDS011;1025;42.686;23.350;2023-03-23T11:44:53;10.43;;;6.70;;
2039;SDS011;1025;42.686;23.350;2023-03-23T11:47:22;7.97;;;5.83;;
2039;SDS011;1025;42.686;23.350;2023-03-23T11:49:55;14.83;;;8.23;;
2039;SDS011;1025;42.686;23.350;2023-03-23T11:52:24;9.00;;;7.57;;
2039;SDS011;1025;42.686;23.350;2023-03-23T11:54:55;7.60;;;6.90;;
2039;SDS011;1025;42.686;23.350;2023-03-23T11:57:24;7.37;;;6.83;;
2039;SDS011;1025;42.686;23.350;2023-03-23T11:59:53;13.23;;;9.30;;
2039;SDS011;1025;42.686;23.350;2023-03-23T12:02:30;9.77;;;7.20;;
2039;SDS011;1025;42.686;23.350;2023-03-23T12:05:06;7.40;;;6.70;;
2039;SDS011;1025;42.686;23.350;2023-03-23T12:07:44;15.47;;;7.07;;
2039;SDS011;1025;42.686;23.350;2023-03-23T12:10:21;7.70;;;7.00;;
2039;SDS011;1025;42.686;23.350;2023-03-23T12:12:56;7.67;;;6.93;;
2039;SDS011;1025;42.686;23.350;2023-03-23T12:15:27;10.20;;;7.20;;
2039;SDS011;1025;42.686;23.350;2023-03-23T12:17:59;7.77;;;6.60;;
2039;SDS011;1025;42.686;23.350;2023-03-23T12:20:30;6.93;;;6.43;;
2039;SDS011;1025;42.686;23.350;2023-03-23T12:23:10;7.17;;;6.57;;
2039;SDS011;1025;42.686;23.350;2023-03-23T12:25:45;7.93;;;7.20;;
2039;SDS011;1025;42.686;23.350;2023-03-23T12:28:18;9.30;;;7.00;;
2039;SDS011;1025;42.686;23.350;2023-03-23T12:30:47;7.60;;;6.93;;
2039;SDS011;1025;42.686;23.350;2023-03-23T12:33:21;13.73;;;7.80;;
2039;SDS011;1025;42.686;23.350;2023-03-23T12:35:50;7.80;;;7.13;;
2039;SDS011;1025;42.686;23.350;2023-03-23T12:38:27;7.20;;;6.53;;
2039;SDS011;1025;42.686;23.350;2023-03-23T12:41:00;7.00;;;6.13;;
2039;SDS011;1025;42.686;23.350;2023-03-23T12:43:31;7.90;;;7.20;;
2039;SDS011;1025;42.686;23.350;2023-03-23T12:46:07;7.43;;;6.80;;
2039;SDS011;1025;42.686;23.350;2023-03-23T12:48:37;9.20;;;7.37;;
2039;SDS011;1025;42.686;23.350;2023-03-23T12:51:08;14.87;;;7.87;;
2039;SDS011;1025;42.686;23.350;2023-03-23T12:53:39;8.20;;;7.40;;
2039;SDS011;1025;42.686;23.350;2023-03-23T12:56:08;17.47;;;8.40;;
2039;SDS011;1025;42.686;23.350;2023-03-23T12:58:40;7.53;;;6.83;;
2039;SDS011;1025;42.686;23.350;2023-03-23T13:03:59;7.30;;;6.70;;
2039;SDS011;1025;42.686;23.350;2023-03-23T13:06:27;6.47;;;5.80;;
2039;SDS011;1025;42.686;23.350;2023-03-23T13:08:56;6.73;;;5.83;;
2039;SDS011;1025;42.686;23.350;2023-03-23T13:11:29;6.80;;;6.10;;
2039;SDS011;1025;42.686;23.350;2023-03-23T13:14:01;5.40;;;5.07;;
2039;SDS011;1025;42.686;23.350;2023-03-23T13:16:31;4.87;;;4.40;;
2039;SDS011;1025;42.686;23.350;2023-03-23T13:19:04;6.17;;;5.57;;
2039;SDS011;1025;42.686;23.350;2023-03-23T13:21:34;5.80;;;5.40;;
2039;SDS011;1025;42.686;23.350;2023-03-23T13:24:03;5.90;;;5.40;;
2039;SDS011;1025;42.686;23.350;2023-03-23T13:26:30;4.90;;;4.60;;
2039;SDS011;1025;42.686;23.350;2023-03-23T13:28:58;6.20;;;5.70;;
2039;SDS011;1025;42.686;23.350;2023-03-23T13:31:29;5.90;;;5.40;;
2039;SDS011;1025;42.686;23.350;2023-03-23T13:34:01;6.57;;;6.07;;
2039;SDS011;1025;42.686;23.350;2023-03-23T13:36:29;8.07;;;7.20;;
2039;SDS011;1025;42.686;23.350;2023-03-23T13:38:57;10.90;;;10.00;;
2039;SDS011;1025;42.686;23.350;2023-03-23T13:41:25;6.87;;;6.37;;
2039;SDS011;1025;42.686;23.350;2023-03-23T13:43:52;23.83;;;9.37;;
2039;SDS011;1025;42.686;23.350;2023-03-23T13:46:31;6.47;;;5.97;;
2039;SDS011;1025;42.686;23.350;2023-03-23T13:49:04;6.83;;;6.13;;
2039;SDS011;1025;42.686;23.350;2023-03-23T13:51:34;5.60;;;5.20;;
2039;SDS011;1025;42.686;23.350;2023-03-23T13:56:52;5.20;;;4.80;;
2039;SDS011;1025;42.686;23.350;2023-03-23T13:59:28;9.50;;;6.50;;
2039;SDS011;1025;42.686;23.350;2023-03-23T14:01:57;6.83;;;5.70;;
2039;SDS011;1025;42.686;23.350;2023-03-23T14:04:43;5.43;;;5.03;;
2039;SDS011;1025;42.686;23.350;2023-03-23T14:07:15;5.00;;;4.60;;
2039;SDS011;1025;42.686;23.350;2023-03-23T14:09:46;5.93;;;5.50;;
2039;SDS011;1025;42.686;23.350;2023-03-23T14:12:14;6.33;;;5.83;;
2039;SDS011;1025;42.686;23.350;2023-03-23T14:15:05;6.83;;;6.13;;
2039;SDS011;1025;42.686;23.350;2023-03-23T14:20:30;6.20;;;5.70;;
2039;SDS011;1025;42.686;23.350;2023-03-23T14:22:58;6.73;;;6.07;;
2039;SDS011;1025;42.686;23.350;2023-03-23T14:25:26;6.23;;;5.60;;
2039;SDS011;1025;42.686;23.350;2023-03-23T14:27:53;6.60;;;5.90;;
2039;SDS011;1025;42.686;23.350;2023-03-23T14:30:20;6.87;;;5.73;;
2039;SDS011;1025;42.686;23.350;2023-03-23T14:32:47;6.60;;;5.83;;
2039;SDS011;1025;42.686;23.350;2023-03-23T14:35:16;7.50;;;5.60;;
2039;SDS011;1025;42.686;23.350;2023-03-23T14:37:57;6.00;;;5.47;;
2039;SDS011;1025;42.686;23.350;2023-03-23T14:40:25;4.93;;;4.57;;
2039;SDS011;1025;42.686;23.350;2023-03-23T14:42:52;5.53;;;5.13;;
2039;SDS011;1025;42.686;23.350;2023-03-23T14:45:31;4.90;;;4.60;;
2039;SDS011;1025;42.686;23.350;2023-03-23T14:47:59;6.63;;;6.10;;
2039;SDS011;1025;42.686;23.350;2023-03-23T14:50:28;6.03;;;5.60;;
2039;SDS011;1025;42.686;23.350;2023-03-23T14:53:02;7.20;;;5.20;;
2039;SDS011;1025;42.686;23.350;2023-03-23T14:55:30;6.20;;;5.70;;
2039;SDS011;1025;42.686;23.350;2023-03-23T14:58:05;7.20;;;6.60;;
2039;SDS011;1025;42.686;23.350;2023-03-23T15:00:34;6.63;;;6.03;;
2039;SDS011;1025;42.686;23.350;2023-03-23T15:03:02;6.53;;;6.13;;
2039;SDS011;1025;42.686;23.350;2023-03-23T15:05:33;6.57;;;6.10;;
2039;SDS011;1025;42.686;23.350;2023-03-23T15:08:03;8.20;;;5.67;;
2039;SDS011;1025;42.686;23.350;2023-03-23T15:10:31;6.57;;;5.97;;
2039;SDS011;1025;42.686;23.350;2023-03-23T15:12:57;7.53;;;6.77;;